createdAt,value
2018-06-02T00:00:09.867Z,10.84
2018-06-02T00:01:09.879Z,10.82
2018-06-02T00:02:09.894Z,10.79
2018-06-02T00:03:09.908Z,10.71
2018-06-02T00:04:09.923Z,10.78
2018-06-02T00:05:09.937Z,10.78
2018-06-02T00:06:09.952Z,10.74
2018-06-02T00:07:09.972Z,10.79
2018-06-02T00:08:09.980Z,10.74
2018-06-02T00:09:09.996Z,10.79
2018-06-02T00:10:10.011Z,10.82
2018-06-02T00:11:10.140Z,10.81
2018-06-02T00:12:10.048Z,10.76
2018-06-02T00:13:10.054Z,10.76
2018-06-02T00:14:10.071Z,10.71
2018-06-02T00:15:10.088Z,10.66
2018-06-02T00:16:10.099Z,10.67
2018-06-02T00:17:10.112Z,10.64
2018-06-02T00:18:10.127Z,10.60
2018-06-02T00:19:10.141Z,10.56
2018-06-02T00:20:10.159Z,10.59
2018-06-02T00:21:10.169Z,10.52
2018-06-02T00:22:10.183Z,10.63
2018-06-02T00:23:10.199Z,10.61
2018-06-02T00:24:10.213Z,10.63
2018-06-02T00:25:10.227Z,10.55
2018-06-02T00:26:10.241Z,10.59
2018-06-02T00:27:10.259Z,10.63
2018-06-02T00:28:10.272Z,10.64
2018-06-02T00:29:10.284Z,10.71
2018-06-02T00:30:10.298Z,10.70
2018-06-02T00:31:10.312Z,10.67
2018-06-02T00:32:10.329Z,10.67
2018-06-02T00:33:10.341Z,10.66
2018-06-02T00:34:10.356Z,10.71
2018-06-02T00:35:10.372Z,10.74
2018-06-02T00:36:10.386Z,10.76
2018-06-02T00:37:10.401Z,10.71
2018-06-02T00:38:10.424Z,10.68
2018-06-02T00:39:10.429Z,10.66
2018-06-02T00:40:10.447Z,10.64
2018-06-02T00:41:10.458Z,10.60
2018-06-02T00:42:10.473Z,10.61
2018-06-02T00:43:10.490Z,10.59
2018-06-02T00:44:10.501Z,10.53
2018-06-02T00:45:10.515Z,10.55
2018-06-02T00:46:10.529Z,10.51
2018-06-02T00:47:10.544Z,10.42
2018-06-02T00:48:10.559Z,10.42
2018-06-02T00:49:10.574Z,10.55
2018-06-02T00:50:10.585Z,10.60
2018-06-02T00:51:10.601Z,10.51
2018-06-02T00:52:10.616Z,10.53
2018-06-02T00:53:10.630Z,10.53
2018-06-02T00:54:10.643Z,10.48
2018-06-02T00:55:10.658Z,10.55
2018-06-02T00:56:10.672Z,10.47
2018-06-02T00:57:10.688Z,10.45
2018-06-02T00:58:10.701Z,10.44
2018-06-02T00:59:10.719Z,10.52
2018-06-02T01:00:10.729Z,10.47
2018-06-02T01:01:10.742Z,10.51
2018-06-02T01:02:10.761Z,10.51
2018-06-02T01:03:10.773Z,10.51
2018-06-02T01:04:10.786Z,10.41
2018-06-02T01:05:10.800Z,10.42
2018-06-02T01:06:10.815Z,10.45
2018-06-02T01:07:10.830Z,10.38
2018-06-02T01:08:10.843Z,10.36
2018-06-02T01:09:10.862Z,10.41
2018-06-02T01:10:10.872Z,10.45
2018-06-02T01:11:10.886Z,10.40
2018-06-02T01:12:10.898Z,10.34
2018-06-02T01:13:10.917Z,10.44
2018-06-02T01:14:10.929Z,10.45
2018-06-02T01:15:10.942Z,10.44
2018-06-02T01:16:10.954Z,10.52
2018-06-02T01:17:10.971Z,10.47
2018-06-02T01:18:10.985Z,10.42
2018-06-02T01:19:11.006Z,10.47
2018-06-02T01:20:11.014Z,10.44
2018-06-02T01:21:11.028Z,10.55
2018-06-02T01:22:11.041Z,10.51
2018-06-02T01:23:11.067Z,10.51
2018-06-02T01:24:11.070Z,10.48
2018-06-02T01:25:11.085Z,10.47
2018-06-02T01:26:11.100Z,10.55
2018-06-02T01:27:11.112Z,10.59
2018-06-02T01:28:11.129Z,10.52
2018-06-02T01:29:11.142Z,10.55
2018-06-02T01:30:11.157Z,10.53
2018-06-02T01:31:11.170Z,10.48
2018-06-02T01:32:11.185Z,10.52
2018-06-02T01:33:11.198Z,10.55
2018-06-02T01:34:11.213Z,10.53
2018-06-02T01:35:11.228Z,10.48
2018-06-02T01:36:11.242Z,10.47
2018-06-02T01:37:11.306Z,10.51
2018-06-02T01:38:11.271Z,10.52
2018-06-02T01:39:11.286Z,10.53
2018-06-02T01:40:11.297Z,10.48
2018-06-02T01:41:11.313Z,10.40
2018-06-02T01:42:11.327Z,10.45
2018-06-02T01:43:11.342Z,10.33
2018-06-02T01:44:11.357Z,10.32
2018-06-02T01:45:11.373Z,10.29
2018-06-02T01:46:11.384Z,10.32
2018-06-02T01:47:11.401Z,10.33
2018-06-02T01:48:11.418Z,10.38
2018-06-02T01:49:11.428Z,10.40
2018-06-02T01:50:11.442Z,10.44
2018-06-02T01:51:11.457Z,10.32
2018-06-02T01:52:11.472Z,10.33
2018-06-02T01:53:11.488Z,10.34
2018-06-02T01:54:11.500Z,10.25
2018-06-02T01:55:11.513Z,10.27
2018-06-02T01:56:11.527Z,10.27
2018-06-02T01:57:11.542Z,10.18
2018-06-02T01:58:11.556Z,10.23
2018-06-02T01:59:11.569Z,10.25
2018-06-02T02:00:11.584Z,10.20
2018-06-02T02:01:11.601Z,10.23
2018-06-02T02:02:11.613Z,10.18
2018-06-02T02:03:11.626Z,10.15
2018-06-02T02:04:11.640Z,10.18
2018-06-02T02:05:11.656Z,10.15
2018-06-02T02:06:11.670Z,10.23
2018-06-02T02:07:11.684Z,10.25
2018-06-02T02:08:11.697Z,10.23
2018-06-02T02:09:11.711Z,10.23
2018-06-02T02:10:11.724Z,10.26
2018-06-02T02:11:11.742Z,10.26
2018-06-02T02:12:11.751Z,10.17
2018-06-02T02:13:11.767Z,10.14
2018-06-02T02:14:11.780Z,10.17
2018-06-02T02:15:11.795Z,10.15
2018-06-02T02:16:11.809Z,10.15
2018-06-02T02:17:11.823Z,10.15
2018-06-02T02:18:11.839Z,10.08
2018-06-02T02:19:11.853Z,10.15
2018-06-02T02:20:11.864Z,10.07
2018-06-02T02:21:11.879Z,10.07
2018-06-02T02:22:11.893Z,10.07
2018-06-02T02:23:11.907Z,9.99
2018-06-02T02:24:11.921Z,10.04
2018-06-02T02:25:11.935Z,10.02
2018-06-02T02:26:11.950Z,10.04
2018-06-02T02:27:11.963Z,9.99
2018-06-02T02:28:11.978Z,10.01
2018-06-02T02:29:11.995Z,9.97
2018-06-02T02:30:12.015Z,10.05
2018-06-02T02:31:12.026Z,9.96
2018-06-02T02:32:12.034Z,10.02
2018-06-02T02:33:12.049Z,10.05
2018-06-02T02:34:12.061Z,9.99
2018-06-02T02:35:12.075Z,10.01
2018-06-02T02:36:12.089Z,10.04
2018-06-02T02:37:12.102Z,9.97
2018-06-02T02:38:12.117Z,10.04
2018-06-02T02:39:12.132Z,9.97
2018-06-02T02:40:12.146Z,10.02
2018-06-02T02:41:12.162Z,9.91
2018-06-02T02:42:12.175Z,10.02
2018-06-02T02:43:12.188Z,9.97
2018-06-02T02:44:12.199Z,9.97
2018-06-02T02:45:12.213Z,10.02
2018-06-02T02:46:12.278Z,10.02
2018-06-02T02:47:12.241Z,9.99
2018-06-02T02:48:12.253Z,9.97
2018-06-02T02:49:12.269Z,9.96
2018-06-02T02:50:12.284Z,10.01
2018-06-02T02:51:12.297Z,9.97
2018-06-02T02:52:12.311Z,10.05
2018-06-02T02:53:12.329Z,10.01
2018-06-02T02:54:12.339Z,10.04
2018-06-02T02:55:12.353Z,10.02
2018-06-02T02:56:12.366Z,9.99
2018-06-02T02:57:12.380Z,10.01
2018-06-02T02:58:12.394Z,10.01
2018-06-02T02:59:12.409Z,10.15
2018-06-02T03:00:12.424Z,10.11
2018-06-02T03:01:12.439Z,10.12
2018-06-02T03:02:12.451Z,10.25
2018-06-02T03:03:12.461Z,10.12
2018-06-02T03:04:12.477Z,10.20
2018-06-02T03:05:12.491Z,10.17
2018-06-02T03:06:12.509Z,10.15
2018-06-02T03:07:12.520Z,10.15
2018-06-02T03:08:12.540Z,10.09
2018-06-02T03:09:12.548Z,10.07
2018-06-02T03:10:12.561Z,9.97
2018-06-02T03:11:12.572Z,9.96
2018-06-02T03:12:12.588Z,9.99
2018-06-02T03:13:12.603Z,9.97
2018-06-02T03:14:12.616Z,9.89
2018-06-02T03:15:12.630Z,10.01
2018-06-02T03:16:12.647Z,9.93
2018-06-02T03:17:12.656Z,9.97
2018-06-02T03:18:12.670Z,9.96
2018-06-02T03:19:12.685Z,9.94
2018-06-02T03:20:12.699Z,10.02
2018-06-02T03:21:12.714Z,10.05
2018-06-02T03:22:12.730Z,10.04
2018-06-02T03:23:12.742Z,10.07
2018-06-02T03:24:12.757Z,10.09
2018-06-02T03:25:12.767Z,10.02
2018-06-02T03:26:12.782Z,10.07
2018-06-02T03:27:12.794Z,10.12
2018-06-02T03:28:12.808Z,10.08
2018-06-02T03:29:12.821Z,10.12
2018-06-02T03:30:12.843Z,10.20
2018-06-02T03:31:12.851Z,10.12
2018-06-02T03:32:12.867Z,10.17
2018-06-02T03:33:12.878Z,10.15
2018-06-02T03:34:12.891Z,10.15
2018-06-02T03:35:12.905Z,10.18
2018-06-02T03:36:12.917Z,10.29
2018-06-02T03:37:12.932Z,10.18
2018-06-02T03:38:12.945Z,10.23
2018-06-02T03:39:12.961Z,10.18
2018-06-02T03:40:12.972Z,10.14
2018-06-02T03:41:12.986Z,10.27
2018-06-02T03:42:13.001Z,10.22
2018-06-02T03:43:13.015Z,10.25
2018-06-02T03:44:13.027Z,10.25
2018-06-02T03:45:13.041Z,10.18
2018-06-02T03:46:13.055Z,10.17
2018-06-02T03:47:13.070Z,10.22
2018-06-02T03:48:13.084Z,10.15
2018-06-02T03:49:13.097Z,10.15
2018-06-02T03:50:13.112Z,10.14
2018-06-02T03:51:13.124Z,10.12
2018-06-02T03:52:13.139Z,10.18
2018-06-02T03:53:13.153Z,10.20
2018-06-02T03:54:13.168Z,10.15
2018-06-02T03:55:13.181Z,10.15
2018-06-02T03:56:13.194Z,10.15
2018-06-02T03:57:13.211Z,10.20
2018-06-02T03:58:13.223Z,10.15
2018-06-02T03:59:13.238Z,10.08
2018-06-02T04:00:13.251Z,10.04
2018-06-02T04:01:13.264Z,10.01
2018-06-02T04:02:13.279Z,9.99
2018-06-02T04:03:13.292Z,10.02
2018-06-02T04:04:13.305Z,10.01
2018-06-02T04:05:13.321Z,10.04
2018-06-02T04:06:13.332Z,10.04
2018-06-02T04:07:13.348Z,9.99
2018-06-02T04:08:13.360Z,10.08
2018-06-02T04:09:13.378Z,10.02
2018-06-02T04:10:13.392Z,10.04
2018-06-02T04:11:13.403Z,10.05
2018-06-02T04:12:13.416Z,10.01
2018-06-02T04:13:13.429Z,10.04
2018-06-02T04:14:13.446Z,9.99
2018-06-02T04:15:13.459Z,9.99
2018-06-02T04:16:13.474Z,10.01
2018-06-02T04:17:13.486Z,10.09
2018-06-02T04:18:13.501Z,10.07
2018-06-02T04:19:13.519Z,10.14
2018-06-02T04:20:13.527Z,9.99
2018-06-02T04:21:13.542Z,10.07
2018-06-02T04:22:13.554Z,10.01
2018-06-02T04:23:13.572Z,10.05
2018-06-02T04:24:13.583Z,10.04
2018-06-02T04:25:13.598Z,10.02
2018-06-02T04:26:13.612Z,10.01
2018-06-02T04:27:13.625Z,10.08
2018-06-02T04:28:13.636Z,10.05
2018-06-02T04:29:13.653Z,10.09
2018-06-02T04:30:13.667Z,10.01
2018-06-02T04:31:13.681Z,10.02
2018-06-02T04:32:13.695Z,10.09
2018-06-02T04:33:13.708Z,10.05
2018-06-02T04:34:13.723Z,10.07
2018-06-02T04:35:13.736Z,10.09
2018-06-02T04:36:13.751Z,10.05
2018-06-02T04:37:13.762Z,10.05
2018-06-02T04:38:13.778Z,9.99
2018-06-02T04:39:13.791Z,10.08
2018-06-02T04:40:13.804Z,10.02
2018-06-02T04:41:13.820Z,10.05
2018-06-02T04:42:13.833Z,10.01
2018-06-02T04:43:13.847Z,10.07
2018-06-02T04:44:13.860Z,9.99
2018-06-02T04:45:13.878Z,9.97
2018-06-02T04:46:13.888Z,9.96
2018-06-02T04:47:13.903Z,9.97
2018-06-02T04:48:13.918Z,9.89
2018-06-02T04:49:13.930Z,9.91
2018-06-02T04:50:13.945Z,9.90
2018-06-02T04:51:13.958Z,9.84
2018-06-02T04:52:13.972Z,9.81
2018-06-02T04:53:13.985Z,9.89
2018-06-02T04:54:14.000Z,9.74
2018-06-02T04:55:14.014Z,9.83
2018-06-02T04:56:14.027Z,9.78
2018-06-02T04:57:14.041Z,9.79
2018-06-02T04:58:14.054Z,9.87
2018-06-02T04:59:14.069Z,9.87
2018-06-02T05:00:14.082Z,9.90
2018-06-02T05:01:14.096Z,9.89
2018-06-02T05:02:14.107Z,9.83
2018-06-02T05:03:14.124Z,9.87
2018-06-02T05:04:14.137Z,9.86
2018-06-02T05:05:14.148Z,9.87
2018-06-02T05:06:14.166Z,9.87
2018-06-02T05:07:14.177Z,9.86
2018-06-02T05:08:14.189Z,9.94
2018-06-02T05:09:14.203Z,9.91
2018-06-02T05:10:14.218Z,9.99
2018-06-02T05:11:14.234Z,9.93
2018-06-02T05:12:14.243Z,9.87
2018-06-02T05:13:14.257Z,9.87
2018-06-02T05:14:14.271Z,9.89
2018-06-02T05:15:14.361Z,9.87
2018-06-02T05:16:14.301Z,9.96
2018-06-02T05:17:14.314Z,9.89
2018-06-02T05:18:14.327Z,9.90
2018-06-02T05:19:14.342Z,9.96
2018-06-02T05:20:14.363Z,9.89
2018-06-02T05:21:14.367Z,9.87
2018-06-02T05:22:14.380Z,9.99
2018-06-02T05:23:14.398Z,9.93
2018-06-02T05:24:14.406Z,9.89
2018-06-02T05:25:14.420Z,9.89
2018-06-02T05:26:14.441Z,9.90
2018-06-02T05:27:14.447Z,9.93
2018-06-02T05:28:14.461Z,9.86
2018-06-02T05:29:14.540Z,9.90
2018-06-02T05:30:14.590Z,9.90
2018-06-02T05:31:14.503Z,9.89
2018-06-02T05:32:14.516Z,9.91
2018-06-02T05:33:14.528Z,9.87
2018-06-02T05:34:14.542Z,9.93
2018-06-02T05:35:14.561Z,9.97
2018-06-02T05:36:14.569Z,9.93
2018-06-02T05:37:14.582Z,10.02
2018-06-02T05:38:14.596Z,10.01
2018-06-02T05:39:14.610Z,10.04
2018-06-02T05:40:14.628Z,10.09
2018-06-02T05:41:14.634Z,10.18
2018-06-02T05:42:14.650Z,10.22
2018-06-02T05:43:14.662Z,10.23
2018-06-02T05:44:14.675Z,10.27
2018-06-02T05:45:14.689Z,10.27
2018-06-02T05:46:14.703Z,10.30
2018-06-02T05:47:14.717Z,10.30
2018-06-02T05:48:14.728Z,10.36
2018-06-02T05:49:14.742Z,10.34
2018-06-02T05:50:14.756Z,10.33
2018-06-02T05:51:14.769Z,10.40
2018-06-02T05:52:14.782Z,10.38
2018-06-02T05:53:14.796Z,10.41
2018-06-02T05:54:14.809Z,10.42
2018-06-02T05:55:14.825Z,10.44
2018-06-02T05:56:14.835Z,10.32
2018-06-02T05:57:14.850Z,10.33
2018-06-02T05:58:14.861Z,10.40
2018-06-02T05:59:14.877Z,10.45
2018-06-02T06:00:14.893Z,10.48
2018-06-02T06:01:14.904Z,10.52
2018-06-02T06:02:14.917Z,10.47
2018-06-02T06:03:14.932Z,10.56
2018-06-02T06:04:14.946Z,10.53
2018-06-02T06:05:14.959Z,10.66
2018-06-02T06:06:14.971Z,10.64
2018-06-02T06:07:14.988Z,10.67
2018-06-02T06:08:15.000Z,10.67
2018-06-02T06:09:15.016Z,10.76
2018-06-02T06:10:15.030Z,10.82
2018-06-02T06:11:15.042Z,10.79
2018-06-02T06:12:15.054Z,10.74
2018-06-02T06:13:15.069Z,10.85
2018-06-02T06:14:15.083Z,10.79
2018-06-02T06:15:15.097Z,10.79
2018-06-02T06:16:15.110Z,10.82
2018-06-02T06:17:15.123Z,10.89
2018-06-02T06:18:15.137Z,10.88
2018-06-02T06:19:15.152Z,10.86
2018-06-02T06:20:15.165Z,10.86
2018-06-02T06:21:15.184Z,10.89
2018-06-02T06:22:15.192Z,10.84
2018-06-02T06:23:15.207Z,10.89
2018-06-02T06:24:15.223Z,10.88
2018-06-02T06:25:15.235Z,10.97
2018-06-02T06:26:15.248Z,10.94
2018-06-02T06:27:15.266Z,10.97
2018-06-02T06:28:15.276Z,11.00
2018-06-02T06:29:15.289Z,11.15
2018-06-02T06:30:15.311Z,11.04
2018-06-02T06:31:15.319Z,11.02
2018-06-02T06:32:15.331Z,11.04
2018-06-02T06:33:15.366Z,11.02
2018-06-02T06:34:15.361Z,11.02
2018-06-02T06:35:15.375Z,11.04
2018-06-02T06:36:15.386Z,11.11
2018-06-02T06:37:15.403Z,11.18
2018-06-02T06:38:15.417Z,11.17
2018-06-02T06:39:15.431Z,11.27
2018-06-02T06:40:15.443Z,11.22
2018-06-02T06:41:15.458Z,11.18
2018-06-02T06:42:15.473Z,11.27
2018-06-02T06:43:15.485Z,11.15
2018-06-02T06:44:15.501Z,11.21
2018-06-02T06:45:15.513Z,11.33
2018-06-02T06:46:15.528Z,11.29
2018-06-02T06:47:15.542Z,11.40
2018-06-02T06:48:15.555Z,11.44
2018-06-02T06:49:15.572Z,11.42
2018-06-02T06:50:15.585Z,11.46
2018-06-02T06:51:15.598Z,11.44
2018-06-02T06:52:15.616Z,11.49
2018-06-02T06:53:15.626Z,11.47
2018-06-02T06:54:15.642Z,11.52
2018-06-02T06:55:15.655Z,11.47
2018-06-02T06:56:15.669Z,11.60
2018-06-02T06:57:15.682Z,11.65
2018-06-02T06:58:15.697Z,11.64
2018-06-02T06:59:15.710Z,11.73
2018-06-02T07:00:15.726Z,11.76
2018-06-02T07:01:15.744Z,11.82
2018-06-02T07:02:15.754Z,11.76
2018-06-02T07:03:15.774Z,11.76
2018-06-02T07:04:15.780Z,11.83
2018-06-02T07:05:15.798Z,11.86
2018-06-02T07:06:15.810Z,11.72
2018-06-02T07:07:15.825Z,11.86
2018-06-02T07:08:15.837Z,11.95
2018-06-02T07:09:15.853Z,11.94
2018-06-02T07:10:15.867Z,12.01
2018-06-02T07:11:15.883Z,12.01
2018-06-02T07:12:15.894Z,12.16
2018-06-02T07:13:15.911Z,12.28
2018-06-02T07:14:15.923Z,12.34
2018-06-02T07:15:15.946Z,12.32
2018-06-02T07:16:15.959Z,12.34
2018-06-02T07:17:15.968Z,12.34
2018-06-02T07:18:15.987Z,12.29
2018-06-02T07:19:15.996Z,12.37
2018-06-02T07:20:16.011Z,12.37
2018-06-02T07:21:16.023Z,12.49
2018-06-02T07:22:16.037Z,12.47
2018-06-02T07:23:16.052Z,12.60
2018-06-02T07:24:16.067Z,12.47
2018-06-02T07:25:16.082Z,12.45
2018-06-02T07:26:16.097Z,12.42
2018-06-02T07:27:16.109Z,12.37
2018-06-02T07:28:16.125Z,12.34
2018-06-02T07:29:16.139Z,12.41
2018-06-02T07:30:16.152Z,12.47
2018-06-02T07:31:16.168Z,12.38
2018-06-02T07:32:16.182Z,12.35
2018-06-02T07:33:16.197Z,12.34
2018-06-02T07:34:16.214Z,12.23
2018-06-02T07:35:16.228Z,12.54
2018-06-02T07:36:16.240Z,12.53
2018-06-02T07:37:16.259Z,12.64
2018-06-02T07:38:16.270Z,12.62
2018-06-02T07:39:16.288Z,12.72
2018-06-02T07:40:16.299Z,12.83
2018-06-02T07:41:16.312Z,12.82
2018-06-02T07:42:16.327Z,12.92
2018-06-02T07:43:16.341Z,12.85
2018-06-02T07:44:16.360Z,12.90
2018-06-02T07:45:16.374Z,12.93
2018-06-02T07:46:16.384Z,12.87
2018-06-02T07:47:16.397Z,13.00
2018-06-02T07:48:16.411Z,12.95
2018-06-02T07:49:16.424Z,12.92
2018-06-02T07:50:16.440Z,12.89
2018-06-02T07:51:16.456Z,12.78
2018-06-02T07:52:16.468Z,12.83
2018-06-02T07:53:16.483Z,12.92
2018-06-02T07:54:16.499Z,13.00
2018-06-02T07:55:16.514Z,13.10
2018-06-02T07:56:16.533Z,13.10
2018-06-02T07:57:16.543Z,13.26
2018-06-02T07:58:16.557Z,13.22
2018-06-02T07:59:16.572Z,13.26
2018-06-02T08:00:16.587Z,13.30
2018-06-02T08:01:16.601Z,13.41
2018-06-02T08:02:16.615Z,13.38
2018-06-02T08:03:16.631Z,13.10
2018-06-02T08:04:16.644Z,13.14
2018-06-02T08:05:16.663Z,13.26
2018-06-02T08:06:16.676Z,13.15
2018-06-02T08:07:16.690Z,13.30
2018-06-02T08:08:16.702Z,13.57
2018-06-02T08:09:16.718Z,13.77
2018-06-02T08:10:16.735Z,13.69
2018-06-02T08:11:16.749Z,13.66
2018-06-02T08:12:16.763Z,13.79
2018-06-02T08:13:16.777Z,13.87
2018-06-02T08:14:16.793Z,13.64
2018-06-02T08:15:16.809Z,13.79
2018-06-02T08:16:16.823Z,13.70
2018-06-02T08:17:16.836Z,13.44
2018-06-02T08:18:16.852Z,13.52
2018-06-02T08:19:16.871Z,13.59
2018-06-02T08:20:16.882Z,13.45
2018-06-02T08:21:16.896Z,13.38
2018-06-02T08:22:16.914Z,13.36
2018-06-02T08:23:16.926Z,13.44
2018-06-02T08:24:16.941Z,13.66
2018-06-02T08:25:16.958Z,13.71
2018-06-02T08:26:16.970Z,13.95
2018-06-02T08:27:16.989Z,13.87
2018-06-02T08:28:17.000Z,13.92
2018-06-02T08:29:17.016Z,13.77
2018-06-02T08:30:17.031Z,13.87
2018-06-02T08:31:17.048Z,13.87
2018-06-02T08:32:17.107Z,14.32
2018-06-02T08:33:17.119Z,14.35
2018-06-02T08:34:17.092Z,14.42
2018-06-02T08:35:17.106Z,14.52
2018-06-02T08:36:17.123Z,14.62
2018-06-02T08:37:17.135Z,14.70
2018-06-02T08:38:17.151Z,14.81
2018-06-02T08:39:17.166Z,14.81
2018-06-02T08:40:17.182Z,14.78
2018-06-02T08:41:17.196Z,14.50
2018-06-02T08:42:17.211Z,14.61
2018-06-02T08:43:17.225Z,14.61
2018-06-02T08:44:17.242Z,14.62
2018-06-02T08:45:17.256Z,14.68
2018-06-02T08:46:17.275Z,14.75
2018-06-02T08:47:17.291Z,14.94
2018-06-02T08:48:17.304Z,14.94
2018-06-02T08:49:17.320Z,14.73
2018-06-02T08:50:17.334Z,14.68
2018-06-02T08:51:17.354Z,14.64
2018-06-02T08:52:17.366Z,14.84
2018-06-02T08:53:17.382Z,14.83
2018-06-02T08:54:17.422Z,14.78
2018-06-02T08:55:17.414Z,14.81
2018-06-02T08:56:17.429Z,14.68
2018-06-02T08:57:17.444Z,14.47
2018-06-02T08:58:17.461Z,14.54
2018-06-02T08:59:17.479Z,14.52
2018-06-02T09:00:17.495Z,14.58
2018-06-02T09:01:17.508Z,14.47
2018-06-02T09:02:17.522Z,14.69
2018-06-02T09:03:17.538Z,14.72
2018-06-02T09:04:17.555Z,14.65
2018-06-02T09:05:17.616Z,14.84
2018-06-02T09:06:17.586Z,14.98
2018-06-02T09:07:17.602Z,14.84
2018-06-02T09:08:17.616Z,14.94
2018-06-02T09:09:17.635Z,15.17
2018-06-02T09:10:17.650Z,15.16
2018-06-02T09:11:17.666Z,15.20
2018-06-02T09:12:17.682Z,15.20
2018-06-02T09:13:17.697Z,15.06
2018-06-02T09:14:17.716Z,14.98
2018-06-02T09:15:17.735Z,14.70
2018-06-02T09:16:17.750Z,14.68
2018-06-02T09:17:17.762Z,14.86
2018-06-02T09:18:17.780Z,15.09
2018-06-02T09:19:17.798Z,15.09
2018-06-02T09:20:17.812Z,15.23
2018-06-02T09:21:17.831Z,15.39
2018-06-02T09:22:17.873Z,15.38
2018-06-02T09:23:17.861Z,14.77
2018-06-02T09:24:17.875Z,14.73
2018-06-02T09:25:17.894Z,14.84
2018-06-02T09:26:17.911Z,15.16
2018-06-02T09:27:17.926Z,15.28
2018-06-02T09:28:17.943Z,15.49
2018-06-02T09:29:17.959Z,15.53
2018-06-02T09:30:17.976Z,15.57
2018-06-02T09:31:17.990Z,15.46
2018-06-02T09:32:18.007Z,15.62
2018-06-02T09:33:18.023Z,15.51
2018-06-02T09:34:18.094Z,15.65
2018-06-02T09:35:18.082Z,15.65
2018-06-02T09:36:18.074Z,15.65
2018-06-02T09:37:18.088Z,15.92
2018-06-02T09:38:18.105Z,15.92
2018-06-02T09:39:18.123Z,16.09
2018-06-02T09:40:18.143Z,16.21
2018-06-02T09:41:18.156Z,16.30
2018-06-02T09:42:18.171Z,16.04
2018-06-02T09:43:18.188Z,16.04
2018-06-02T09:44:18.202Z,16.25
2018-06-02T09:45:18.219Z,16.43
2018-06-02T09:46:18.236Z,16.08
2018-06-02T09:47:18.252Z,15.87
2018-06-02T09:48:18.270Z,15.90
2018-06-02T09:49:18.284Z,16.04
2018-06-02T09:50:18.309Z,16.48
2018-06-02T09:51:18.317Z,16.50
2018-06-02T09:52:18.335Z,16.09
2018-06-02T09:53:18.399Z,15.83
2018-06-02T09:54:18.373Z,16.20
2018-06-02T09:55:18.385Z,16.41
2018-06-02T09:56:18.408Z,16.48
2018-06-02T09:57:18.420Z,16.52
2018-06-02T09:58:18.434Z,16.41
2018-06-02T09:59:18.453Z,16.25
2018-06-02T10:00:18.468Z,16.17
2018-06-02T10:01:18.484Z,16.42
2018-06-02T10:02:18.504Z,16.45
2018-06-02T10:03:18.523Z,16.79
2018-06-02T10:04:18.535Z,16.89
2018-06-02T10:05:18.552Z,17.00
2018-06-02T10:06:18.571Z,17.00
2018-06-02T10:07:18.586Z,17.12
2018-06-02T10:08:18.603Z,16.89
2018-06-02T10:09:18.623Z,16.86
2018-06-02T10:10:18.638Z,16.83
2018-06-02T10:11:18.654Z,17.04
2018-06-02T10:12:18.672Z,17.00
2018-06-02T10:13:18.688Z,17.22
2018-06-02T10:14:18.703Z,17.33
2018-06-02T10:15:18.725Z,17.30
2018-06-02T10:16:18.739Z,17.44
2018-06-02T10:17:18.758Z,17.16
2018-06-02T10:18:18.775Z,16.82
2018-06-02T10:19:18.794Z,17.22
2018-06-02T10:20:18.810Z,17.07
2018-06-02T10:21:18.830Z,17.06
2018-06-02T10:22:18.851Z,16.98
2018-06-02T10:23:18.861Z,16.98
2018-06-02T10:24:18.878Z,17.22
2018-06-02T10:25:18.902Z,17.25
2018-06-02T10:26:18.916Z,17.44
2018-06-02T10:27:18.933Z,17.70
2018-06-02T10:28:18.955Z,17.54
2018-06-02T10:29:18.967Z,17.23
2018-06-02T10:30:18.986Z,17.37
2018-06-02T10:31:19.005Z,17.11
2018-06-02T10:32:19.021Z,16.24
2018-06-02T10:33:19.040Z,16.35
2018-06-02T10:34:19.057Z,16.45
2018-06-02T10:35:19.076Z,16.43
2018-06-02T10:36:19.093Z,16.58
2018-06-02T10:37:19.111Z,16.91
2018-06-02T10:38:19.128Z,16.86
2018-06-02T10:39:19.147Z,17.06
2018-06-02T10:40:19.165Z,16.83
2018-06-02T10:41:19.187Z,17.34
2018-06-02T10:42:19.206Z,17.52
2018-06-02T10:43:19.228Z,17.62
2018-06-02T10:44:19.239Z,17.46
2018-06-02T10:45:19.255Z,17.49
2018-06-02T10:46:19.275Z,17.84
2018-06-02T10:47:19.292Z,18.05
2018-06-02T10:48:19.309Z,18.20
2018-06-02T10:49:19.329Z,18.32
2018-06-02T10:50:19.345Z,17.90
2018-06-02T10:51:19.408Z,17.96
2018-06-02T10:52:19.383Z,17.56
2018-06-02T10:53:19.400Z,17.36
2018-06-02T10:54:19.425Z,17.62
2018-06-02T10:55:19.438Z,17.84
2018-06-02T10:56:19.456Z,18.03
2018-06-02T10:57:19.475Z,18.10
2018-06-02T10:58:19.497Z,18.15
2018-06-02T10:59:19.515Z,17.93
2018-06-02T11:00:19.530Z,17.43
2018-06-02T11:01:19.552Z,17.46
2018-06-02T11:02:19.569Z,17.81
2018-06-02T11:03:19.595Z,17.77
2018-06-02T11:04:19.606Z,18.21
2018-06-02T11:05:19.623Z,18.39
2018-06-02T11:06:19.645Z,18.52
2018-06-02T11:07:19.660Z,18.12
2018-06-02T11:08:19.681Z,17.90
2018-06-02T11:09:19.699Z,18.08
2018-06-02T11:10:19.718Z,18.47
2018-06-02T11:11:19.737Z,18.72
2018-06-02T11:12:19.755Z,18.30
2018-06-02T11:13:19.774Z,17.81
2018-06-02T11:14:19.794Z,17.90
2018-06-02T11:15:19.813Z,18.17
2018-06-02T11:16:19.831Z,18.55
2018-06-02T11:17:19.851Z,18.70
2018-06-02T11:18:19.870Z,18.98
2018-06-02T11:19:19.890Z,19.21
2018-06-02T11:20:19.910Z,19.10
2018-06-02T11:21:19.928Z,18.95
2018-06-02T11:22:19.949Z,18.94
2018-06-02T11:23:20.001Z,18.81
2018-06-02T11:24:19.986Z,18.80
2018-06-02T11:25:20.007Z,18.62
2018-06-02T11:26:20.027Z,18.18
2018-06-02T11:27:20.045Z,18.58
2018-06-02T11:28:20.068Z,18.72
2018-06-02T11:29:20.085Z,18.50
2018-06-02T11:30:20.102Z,18.39
2018-06-02T11:31:20.121Z,18.15
2018-06-02T11:32:20.144Z,18.36
2018-06-02T11:33:20.162Z,18.67
2018-06-02T11:34:20.179Z,18.81
2018-06-02T11:35:20.200Z,18.81
2018-06-02T11:36:20.221Z,19.10
2018-06-02T11:37:20.240Z,19.18
2018-06-02T11:38:20.261Z,19.10
2018-06-02T11:39:20.280Z,19.23
2018-06-02T11:40:20.298Z,18.99
2018-06-02T11:41:20.316Z,19.25
2018-06-02T11:42:20.336Z,19.16
2018-06-02T11:43:20.357Z,18.87
2018-06-02T11:44:20.427Z,19.25
2018-06-02T11:45:20.393Z,19.16
2018-06-02T11:46:20.414Z,18.37
2018-06-02T11:47:20.434Z,18.52
2018-06-02T11:48:20.457Z,18.26
2018-06-02T11:49:20.473Z,18.02
2018-06-02T11:50:20.495Z,18.25
2018-06-02T11:51:20.512Z,18.51
2018-06-02T11:52:20.530Z,18.82
2018-06-02T11:53:20.551Z,19.13
2018-06-02T11:54:20.572Z,19.19
2018-06-02T11:55:20.591Z,18.73
2018-06-02T11:56:20.608Z,18.26
2018-06-02T11:57:20.628Z,18.26
2018-06-02T11:58:20.649Z,18.78
2018-06-02T11:59:20.667Z,18.81
2018-06-02T12:00:20.685Z,18.91
2018-06-02T12:01:20.706Z,18.80
2018-06-02T12:02:20.726Z,19.02
2018-06-02T12:03:20.745Z,19.23
2018-06-02T12:04:20.764Z,19.40
2018-06-02T12:05:20.780Z,19.43
2018-06-02T12:06:20.802Z,18.33
2018-06-02T12:07:20.822Z,18.20
2018-06-02T12:08:20.840Z,18.67
2018-06-02T12:09:20.864Z,18.94
2018-06-02T12:10:20.882Z,19.32
2018-06-02T12:11:20.901Z,19.74
2018-06-02T12:12:20.920Z,19.98
2018-06-02T12:13:20.941Z,20.02
2018-06-02T12:14:20.964Z,19.98
2018-06-02T12:15:20.979Z,19.78
2018-06-02T12:16:20.997Z,19.18
2018-06-02T12:17:21.021Z,19.58
2018-06-02T12:18:21.038Z,19.25
2018-06-02T12:19:21.058Z,19.65
2018-06-02T12:20:21.076Z,19.51
2018-06-02T12:21:21.098Z,18.90
2018-06-02T12:22:21.118Z,19.41
2018-06-02T12:23:21.137Z,19.68
2018-06-02T12:24:21.154Z,19.73
2018-06-02T12:25:21.176Z,19.59
2018-06-02T12:26:21.196Z,19.61
2018-06-02T12:27:21.218Z,20.14
2018-06-02T12:28:21.239Z,20.43
2018-06-02T12:29:21.256Z,20.35
2018-06-02T12:30:21.276Z,20.18
2018-06-02T12:31:21.297Z,19.99
2018-06-02T12:32:21.317Z,19.83
2018-06-02T12:33:21.338Z,19.95
2018-06-02T12:34:21.359Z,20.02
2018-06-02T12:35:21.379Z,19.76
2018-06-02T12:36:21.398Z,20.03
2018-06-02T12:37:21.420Z,19.95
2018-06-02T12:38:21.440Z,20.29
2018-06-02T12:39:21.462Z,20.47
2018-06-02T12:40:21.483Z,20.29
2018-06-02T12:41:21.506Z,19.74
2018-06-02T12:42:21.522Z,19.94
2018-06-02T12:43:21.545Z,20.01
2018-06-02T12:44:21.566Z,19.77
2018-06-02T12:45:21.589Z,19.19
2018-06-02T12:46:21.603Z,19.16
2018-06-02T12:47:21.625Z,18.80
2018-06-02T12:48:21.646Z,19.25
2018-06-02T12:49:21.672Z,19.94
2018-06-02T12:50:21.689Z,20.05
2018-06-02T12:51:21.708Z,20.36
2018-06-02T12:52:21.731Z,20.79
2018-06-02T12:53:21.806Z,20.77
2018-06-02T12:54:21.779Z,20.70
2018-06-02T12:55:21.792Z,20.54